Pagina principale
METAR-TAF:

METAR-TAF

Aeroporti :

Bad Vöslau, Austria

latitudine: 47-57-52N, longitudine: 016-15-34E, altezza: 233 m

Osservazione

Il bollettino è stato emesso 18 minuti fa, alle 16:00 UTC
Vento 4 kt da nord-est
Temperature 31°C
Umidità 26%
Pressione

METAR: LOAV 181600Z 04004KT 35KM FEW060CU BKN300CI 31/09

Ora: 18:18 (16:18 UTC)

Previsione

Il bollettino è stato emesso 4 ore e 53 minuti fa, alle 11:25 UTC
Previsione valida dal 18 alle 12 UTC al 18 alle 21 UTC
Vento 7 kt da est
Visibilità 10 km o più
Poco nuvoloso ad un'altezza di 5000 ft

TAF: LOAV 181125Z 1812/1821 10007KT 9999 FEW050

Osservazioni e previsioni meteorologiche di più di 4000 aeroporti (messaggi METAR e TAF).

Le stazioni disponibili sono rappresentate dai dischi gialli e rossi sulla carta.

Puntare il mouse per vedere il nome della stazione.

Clicca sopra per visualizzare le osservazioni e previsioni meteorologiche.

Per cambiare la mappa : fare clic sui pulsanti verdi con una croce nera per ingrandire, il pulsante verde con un trattino per diminuire, o sulla freccia verde per le mappe adiacenti.


METAR-TAF: